17°C Temp
8°C Dewpoint
56% Humidity
Temperature
26 KM/H
16 MPH
14 KTS
220°
South West

Wind Speed
Partly Cloudy
Conditions
Pressure 1010.92 (hPa) - 29.85 (in)
Visibility 6.2 (mi) - 10.0 (km)

Current Conditions
EKCH
Location 55(km)
Metar :EKCH 251220Z AUTO 22014KT 9999 FEW081/// 17/08 Q1011 TEMPO SHRA SCT020CB
Wed 25th May 14:20 pm

Airport
  Metar Aviation API Data Provided by https://www.checkwx.com/ PHP scripts by weather34.com ©2022